Anjiao, China

59°F / 15°C
Overcast
Humidity: 94%
Dew Point: 57°F / 14°C
Wind: ESE at 4 mph / 7 km/h
Pressure: 30.12 in / 1020 hPa (Rising)
Visibility: 3.1 miles / 5.0 kilometers
Clouds: Scattered Clouds (SCT) : 1000 ft / 304 m
Mostly Cloudy (BKN) : 2100 ft / 640 m
Overcast (OVC) : 4000 ft / 1219 m
Yesterday's Maximum: 64°F / 18°C
Yesterday's Minimum: 59°F / 15°C approx.
Yesterday's Heating Degree Days: 3 approx.
UV: 0 out of 16
Sunrise:6:37 AM CST
Sunset:6:07 PM CST
Moon Rise:9:01 PM CST
Moon Set:8:35 AM CST
Moon Phase Waning Gibbous
NOAA Weather Radio
No local feed.
METAR ZSAM 220000Z 12002MPS 070V160 5000 BR SCT010 BKN021 OVC040 15/14 Q1020 NOSIG
As of: 8:00 AM CST on February 22, 2019
Observed at: Xiamen, China

View Station's History

Local Satellite

Current Satellite Forecast
Region Default Local
No Yes

View Full Screen WunderMap

Forecast

Current Satellite Forecast

Features

Weather Apps

WunderRadio

Weather Underground Apps
Check out our wide variety of mobile and setup applications.

Weather Underground Applications

Top of Page

© Copyright 2019
The Weather Company, LLC